createdAt,value
2018-07-31T00:00:25.448Z,58.11
2018-07-31T00:03:32.237Z,58.20
2018-07-31T00:06:38.971Z,58.43
2018-07-31T00:09:45.468Z,58.27
2018-07-31T00:12:52.588Z,58.50
2018-07-31T00:15:59.360Z,58.80
2018-07-31T00:19:06.759Z,59.21
2018-07-31T00:22:13.504Z,59.18
2018-07-31T00:25:20.256Z,58.97
2018-07-31T00:28:26.741Z,58.93
2018-07-31T00:31:33.508Z,59.15
2018-07-31T00:34:40.218Z,58.78
2018-07-31T00:37:46.762Z,59.13
2018-07-31T00:40:53.421Z,59.30
2018-07-31T00:43:59.962Z,60.39
2018-07-31T00:47:06.843Z,60.91
2018-07-31T00:50:13.579Z,59.82
2018-07-31T00:53:20.283Z,60.70
2018-07-31T00:56:27.140Z,60.82
2018-07-31T00:59:33.649Z,60.11
2018-07-31T01:02:40.649Z,59.94
2018-07-31T01:05:47.409Z,60.43
2018-07-31T01:08:53.852Z,59.73
2018-07-31T01:12:00.565Z,59.48
2018-07-31T01:15:07.373Z,60.09
2018-07-31T01:18:13.785Z,59.73
2018-07-31T01:21:20.477Z,59.21
2018-07-31T01:24:27.223Z,58.83
2018-07-31T01:27:33.675Z,57.78
2018-07-31T01:30:40.381Z,57.05
2018-07-31T01:33:47.462Z,56.79
2018-07-31T01:36:53.977Z,56.46
2018-07-31T01:40:01.047Z,56.36
2018-07-31T01:43:08.165Z,56.85
2018-07-31T01:46:14.889Z,56.19
2018-07-31T01:49:21.623Z,56.01
2018-07-31T01:52:28.344Z,55.07
2018-07-31T01:55:35.331Z,54.83
2018-07-31T01:58:42.220Z,54.91
2018-07-31T02:01:48.952Z,54.99
2018-07-31T02:04:55.704Z,55.41
2018-07-31T02:08:02.419Z,55.68
2018-07-31T02:11:08.957Z,55.53
2018-07-31T02:14:15.772Z,54.88
2018-07-31T02:17:22.489Z,55.23
2018-07-31T02:20:28.546Z,54.83
2018-07-31T02:23:35.224Z,55.36
2018-07-31T02:26:42.287Z,55.76
2018-07-31T02:29:54.183Z,55.67
2018-07-31T02:33:00.598Z,56.01
2018-07-31T02:36:07.665Z,56.45
2018-07-31T02:39:14.457Z,56.47
2018-07-31T02:42:21.206Z,56.26
2018-07-31T02:45:27.704Z,56.44
2018-07-31T02:48:34.765Z,57.00
2018-07-31T02:51:41.276Z,57.35
2018-07-31T02:54:48.193Z,56.45
2018-07-31T02:57:55.226Z,56.98
2018-07-31T03:01:02.273Z,56.51
2018-07-31T03:04:09.081Z,56.34
2018-07-31T03:07:15.841Z,55.36
2018-07-31T03:10:22.631Z,55.69
2018-07-31T03:13:29.176Z,55.82
2018-07-31T03:16:35.949Z,57.10
2018-07-31T03:19:42.775Z,57.62
2018-07-31T03:22:49.878Z,57.44
2018-07-31T03:25:56.613Z,58.54
2018-07-31T03:29:03.238Z,57.28
2018-07-31T03:32:10.150Z,56.42
2018-07-31T03:35:16.376Z,56.15
2018-07-31T03:38:23.039Z,56.04
2018-07-31T03:41:29.563Z,56.68
2018-07-31T03:44:36.724Z,56.07
2018-07-31T03:47:43.481Z,55.61
2018-07-31T03:50:50.008Z,55.28
2018-07-31T03:53:57.057Z,55.50
2018-07-31T03:57:03.829Z,55.44
2018-07-31T04:00:10.895Z,55.24
2018-07-31T04:03:17.398Z,55.13
2018-07-31T04:06:23.886Z,54.16
2018-07-31T04:09:30.242Z,53.57
2018-07-31T04:12:37.028Z,53.86
2018-07-31T04:15:43.785Z,55.16
2018-07-31T04:18:50.262Z,54.82
2018-07-31T04:21:57.355Z,54.82
2018-07-31T04:25:04.432Z,54.36
2018-07-31T04:28:10.914Z,53.78
2018-07-31T04:31:17.708Z,53.06
2018-07-31T04:34:24.171Z,53.54
2018-07-31T04:37:30.510Z,54.12
2018-07-31T04:40:36.991Z,53.76
2018-07-31T04:43:43.906Z,53.13
2018-07-31T04:46:51.056Z,53.84
2018-07-31T04:49:57.538Z,53.28
2018-07-31T04:53:04.267Z,53.22
2018-07-31T04:56:10.829Z,52.83
2018-07-31T04:59:17.949Z,52.73
2018-07-31T05:02:24.505Z,52.52
2018-07-31T05:05:31.587Z,52.28
2018-07-31T05:08:38.660Z,53.14
2018-07-31T05:11:45.460Z,52.54
2018-07-31T05:14:52.229Z,51.94
2018-07-31T05:17:58.981Z,51.41
2018-07-31T05:21:05.464Z,51.10
2018-07-31T05:24:12.255Z,50.81
2018-07-31T05:27:18.669Z,50.98
2018-07-31T05:30:25.438Z,50.66
2018-07-31T05:33:32.188Z,50.69
2018-07-31T05:36:38.968Z,50.36
2018-07-31T05:39:45.707Z,50.27
2018-07-31T05:42:52.763Z,49.96
2018-07-31T05:45:59.915Z,50.12
2018-07-31T05:49:07.029Z,50.39
2018-07-31T05:52:13.887Z,49.91
2018-07-31T05:55:20.573Z,49.26
2018-07-31T05:58:27.361Z,48.70
2018-07-31T06:01:34.401Z,47.82
2018-07-31T06:04:41.392Z,46.31
2018-07-31T06:07:48.151Z,44.31
2018-07-31T06:10:54.948Z,42.65
2018-07-31T06:14:01.741Z,40.57
2018-07-31T06:17:08.564Z,39.48
2018-07-31T06:20:17.372Z,39.10
2018-07-31T06:23:24.559Z,39.20
2018-07-31T06:26:31.096Z,39.53
2018-07-31T06:29:37.728Z,39.58
2018-07-31T06:32:44.717Z,39.06
2018-07-31T06:35:51.562Z,39.92
2018-07-31T06:38:58.697Z,40.70
2018-07-31T06:42:05.475Z,40.07
2018-07-31T06:45:12.316Z,40.99
2018-07-31T06:48:18.954Z,40.55
2018-07-31T06:51:25.629Z,39.34
2018-07-31T06:54:32.156Z,38.07
2018-07-31T06:57:39.233Z,37.66
2018-07-31T07:00:46.033Z,37.30
2018-07-31T07:03:53.155Z,37.89
2018-07-31T07:07:00.215Z,39.25
2018-07-31T07:10:07.148Z,39.26
2018-07-31T07:13:13.761Z,38.42
2018-07-31T07:16:20.543Z,38.67
2018-07-31T07:19:27.297Z,39.21
2018-07-31T07:22:33.767Z,40.26
2018-07-31T07:25:40.477Z,40.60
2018-07-31T07:28:47.336Z,41.30
2018-07-31T07:31:54.257Z,40.70
2018-07-31T07:35:01.541Z,40.53
2018-07-31T07:38:08.381Z,41.04
2018-07-31T07:41:15.272Z,40.97
2018-07-31T07:44:22.494Z,39.60
2018-07-31T07:47:29.642Z,39.09
2018-07-31T07:50:36.853Z,38.26
2018-07-31T07:53:43.607Z,38.17
2018-07-31T07:56:50.752Z,37.73
2018-07-31T07:59:57.602Z,36.72
2018-07-31T08:03:04.644Z,35.08
2018-07-31T08:06:11.776Z,34.56
2018-07-31T08:09:18.917Z,33.47
2018-07-31T08:12:25.714Z,33.44
2018-07-31T08:15:32.370Z,34.15
2018-07-31T08:18:39.466Z,35.62
2018-07-31T08:21:46.227Z,35.86
2018-07-31T08:24:53.954Z,35.99
2018-07-31T08:28:00.736Z,36.72
2018-07-31T08:31:07.242Z,37.58
2018-07-31T08:34:13.998Z,37.87
2018-07-31T08:37:20.472Z,37.35
2018-07-31T08:40:27.211Z,36.94
2018-07-31T08:43:34.296Z,37.68
2018-07-31T08:46:41.319Z,37.85
2018-07-31T08:49:48.426Z,37.51
2018-07-31T08:52:55.588Z,38.08
2018-07-31T08:56:02.149Z,38.01
2018-07-31T08:59:08.899Z,37.37
2018-07-31T09:02:15.743Z,37.71
2018-07-31T09:05:22.581Z,37.77
2018-07-31T09:08:29.366Z,37.00
2018-07-31T09:11:35.763Z,36.18
2018-07-31T09:14:42.441Z,36.24
2018-07-31T09:17:49.174Z,35.39
2018-07-31T09:20:56.001Z,35.37
2018-07-31T09:24:02.857Z,35.29
2018-07-31T09:27:09.514Z,35.56
2018-07-31T09:30:16.425Z,35.61
2018-07-31T09:33:23.050Z,35.31
2018-07-31T09:36:29.914Z,35.65
2018-07-31T09:39:36.887Z,35.23
2018-07-31T09:42:44.078Z,34.97
2018-07-31T09:45:51.148Z,35.42
2018-07-31T09:48:58.029Z,35.95
2018-07-31T09:52:05.030Z,36.20
2018-07-31T09:55:11.767Z,36.81
2018-07-31T09:58:18.819Z,37.64
2018-07-31T10:01:25.946Z,37.11
2018-07-31T10:04:33.072Z,36.74
2018-07-31T10:07:40.167Z,36.33
2018-07-31T10:10:47.279Z,36.21
2018-07-31T10:13:54.028Z,36.42
2018-07-31T10:17:00.940Z,36.40
2018-07-31T10:20:07.435Z,36.39
2018-07-31T10:23:14.320Z,37.42
2018-07-31T10:26:21.507Z,37.56
2018-07-31T10:29:28.551Z,37.43
2018-07-31T10:32:35.420Z,37.17
2018-07-31T10:35:42.077Z,37.34
2018-07-31T10:38:48.886Z,37.15
2018-07-31T10:41:55.782Z,37.95
2018-07-31T10:45:02.225Z,38.19
2018-07-31T10:48:08.575Z,37.25
2018-07-31T10:51:15.329Z,37.51
2018-07-31T10:54:22.191Z,37.51
2018-07-31T10:57:29.105Z,37.71
2018-07-31T11:00:35.831Z,37.95
2018-07-31T11:03:42.597Z,38.23
2018-07-31T11:06:49.616Z,37.87
2018-07-31T11:09:56.751Z,38.39
2018-07-31T11:13:03.930Z,36.65
2018-07-31T11:16:11.014Z,36.67
2018-07-31T11:19:18.043Z,37.22
2018-07-31T11:22:25.236Z,37.78
2018-07-31T11:25:31.787Z,38.42
2018-07-31T11:28:38.559Z,37.67
2018-07-31T11:31:45.621Z,37.49
2018-07-31T11:34:52.140Z,37.67
2018-07-31T11:37:58.785Z,37.81
2018-07-31T11:41:05.985Z,38.61
2018-07-31T11:44:12.577Z,38.58
2018-07-31T11:47:19.243Z,37.63
2018-07-31T11:50:26.066Z,38.12
2018-07-31T11:53:32.751Z,37.34
2018-07-31T11:56:39.496Z,37.17
2018-07-31T11:59:46.279Z,39.09
2018-07-31T12:02:53.490Z,39.63
2018-07-31T12:05:59.729Z,39.07
2018-07-31T12:09:09.828Z,38.34
2018-07-31T12:12:17.020Z,36.87
2018-07-31T12:15:24.027Z,36.99
2018-07-31T12:18:30.773Z,36.23
2018-07-31T12:21:37.995Z,36.21
2018-07-31T12:24:45.333Z,36.28
2018-07-31T12:27:52.051Z,36.68
2018-07-31T12:30:58.870Z,37.06
2018-07-31T12:34:05.629Z,37.44
2018-07-31T12:37:12.724Z,36.91
2018-07-31T12:40:19.666Z,37.19
2018-07-31T12:43:26.084Z,37.00
2018-07-31T12:46:33.096Z,36.98
2018-07-31T12:49:40.149Z,37.17
2018-07-31T12:52:47.260Z,37.03
2018-07-31T12:55:54.626Z,36.54
2018-07-31T12:59:01.534Z,36.68
2018-07-31T13:02:08.686Z,37.07
2018-07-31T13:05:15.469Z,38.25
2018-07-31T13:08:22.158Z,37.17
2018-07-31T13:11:28.968Z,36.70
2018-07-31T13:14:36.092Z,36.51
2018-07-31T13:17:43.197Z,35.74
2018-07-31T13:20:50.226Z,36.15
2018-07-31T13:23:57.459Z,35.53
2018-07-31T13:27:04.582Z,35.45
2018-07-31T13:30:11.744Z,35.67
2018-07-31T13:33:18.811Z,34.88
2018-07-31T13:36:25.752Z,35.46
2018-07-31T13:39:32.089Z,35.71
2018-07-31T13:42:39.232Z,35.63
2018-07-31T13:45:45.809Z,35.88
2018-07-31T13:48:52.517Z,36.02
2018-07-31T13:51:59.452Z,36.62
2018-07-31T13:55:06.638Z,36.27
2018-07-31T13:58:13.722Z,36.30
2018-07-31T14:01:20.834Z,36.70
2018-07-31T14:04:27.831Z,36.99
2018-07-31T14:07:35.342Z,36.45
2018-07-31T14:10:42.371Z,36.45
2018-07-31T14:13:49.686Z,36.35
2018-07-31T14:16:56.960Z,36.32
2018-07-31T14:20:03.879Z,36.64
2018-07-31T14:23:10.460Z,36.60
2018-07-31T14:26:16.855Z,36.87
2018-07-31T14:29:23.864Z,36.75
2018-07-31T14:32:30.922Z,35.83
2018-07-31T14:35:57.567Z,36.31
2018-07-31T14:39:03.871Z,36.21
2018-07-31T14:42:10.045Z,35.35
2018-07-31T14:45:16.210Z,35.23
2018-07-31T14:48:22.581Z,34.99
2018-07-31T14:51:29.335Z,34.64
2018-07-31T14:54:36.165Z,34.38
2018-07-31T14:57:42.621Z,34.76
2018-07-31T15:00:49.390Z,34.91
2018-07-31T15:03:56.102Z,34.83
2018-07-31T15:07:03.270Z,34.46
2018-07-31T15:10:10.259Z,33.80
2018-07-31T15:13:16.743Z,33.65
2018-07-31T15:16:23.497Z,34.20
2018-07-31T15:19:29.996Z,34.07
2018-07-31T15:22:36.831Z,33.85
2018-07-31T15:25:43.954Z,34.03
2018-07-31T15:28:51.095Z,33.76
2018-07-31T15:31:58.260Z,33.74
2018-07-31T15:35:04.866Z,33.90
2018-07-31T15:38:11.563Z,33.37
2018-07-31T15:41:18.383Z,33.53
2018-07-31T15:44:25.281Z,33.99
2018-07-31T15:47:31.968Z,34.34
2018-07-31T15:50:38.474Z,33.90
2018-07-31T15:53:45.173Z,34.24
2018-07-31T15:56:51.943Z,34.59
2018-07-31T15:59:59.048Z,35.00
2018-07-31T16:03:06.205Z,34.91
2018-07-31T16:06:12.745Z,35.26
2018-07-31T16:09:19.543Z,35.15
2018-07-31T16:12:26.603Z,34.54
2018-07-31T16:15:33.448Z,34.67
2018-07-31T16:18:40.046Z,35.39
2018-07-31T16:21:47.130Z,35.23
2018-07-31T16:24:53.677Z,35.01
2018-07-31T16:28:00.389Z,36.86
2018-07-31T16:31:06.914Z,38.62
2018-07-31T16:34:13.616Z,39.57
2018-07-31T16:37:20.353Z,39.73
2018-07-31T16:40:26.876Z,40.32
2018-07-31T16:43:33.726Z,40.71
2018-07-31T16:46:40.517Z,41.40
2018-07-31T16:49:47.554Z,42.45
2018-07-31T16:52:54.441Z,43.56
2018-07-31T16:56:01.110Z,45.40
2018-07-31T16:59:08.170Z,47.01
2018-07-31T17:02:14.933Z,48.14
2018-07-31T17:05:21.133Z,48.32
2018-07-31T17:08:27.824Z,48.80
2018-07-31T17:11:35.018Z,48.69
2018-07-31T17:14:41.948Z,49.30
2018-07-31T17:17:48.959Z,49.46
2018-07-31T17:20:55.490Z,49.88
2018-07-31T17:24:02.293Z,49.82
2018-07-31T17:27:09.025Z,49.13
2018-07-31T17:30:15.835Z,49.33
2018-07-31T17:33:22.927Z,49.63
2018-07-31T17:36:29.715Z,49.61
2018-07-31T17:39:37.031Z,49.79
2018-07-31T17:42:43.982Z,49.61
2018-07-31T17:45:50.720Z,49.56
2018-07-31T17:48:57.551Z,49.59
2018-07-31T17:52:04.152Z,49.88
2018-07-31T17:55:12.451Z,50.10
2018-07-31T17:58:19.482Z,50.00
2018-07-31T18:01:26.225Z,49.92
2018-07-31T18:04:33.589Z,49.94
2018-07-31T18:07:40.190Z,50.76
2018-07-31T18:10:47.047Z,50.97
2018-07-31T18:13:53.551Z,51.75
2018-07-31T18:17:00.278Z,52.40
2018-07-31T18:20:07.036Z,52.26
2018-07-31T18:23:13.847Z,52.18
2018-07-31T18:26:20.991Z,52.16
2018-07-31T18:29:27.716Z,52.28
2018-07-31T18:32:34.500Z,52.26
2018-07-31T18:35:41.651Z,52.66
2018-07-31T18:38:48.412Z,53.29
2018-07-31T18:41:54.902Z,53.85
2018-07-31T18:45:01.894Z,53.75
2018-07-31T18:48:09.019Z,53.87
2018-07-31T18:51:16.092Z,54.24
2018-07-31T18:54:22.884Z,54.27
2018-07-31T18:57:29.651Z,54.63
2018-07-31T19:00:36.792Z,54.47
2018-07-31T19:03:46.492Z,54.54
2018-07-31T19:06:53.299Z,54.17
2018-07-31T19:10:00.020Z,53.91
2018-07-31T19:13:06.916Z,53.44
2018-07-31T19:16:13.738Z,53.16
2018-07-31T19:19:20.851Z,53.22
2018-07-31T19:22:27.678Z,52.46
2018-07-31T19:25:34.413Z,52.03
2018-07-31T19:28:40.916Z,51.63
2018-07-31T19:31:47.977Z,51.36
2018-07-31T19:34:55.138Z,50.94
2018-07-31T19:38:01.864Z,50.52
2018-07-31T19:41:08.625Z,49.99
2018-07-31T19:44:15.744Z,50.21
2018-07-31T19:47:22.475Z,49.97
2018-07-31T19:50:29.195Z,49.74
2018-07-31T19:53:36.179Z,50.21
2018-07-31T19:56:42.835Z,50.37
2018-07-31T19:59:50.031Z,50.45
2018-07-31T20:02:56.834Z,50.37
2018-07-31T20:06:03.577Z,50.41
2018-07-31T20:09:13.265Z,50.88
2018-07-31T20:12:20.589Z,50.81
2018-07-31T20:15:27.378Z,51.24
2018-07-31T20:18:34.267Z,51.68
2018-07-31T20:21:41.013Z,51.98
2018-07-31T20:24:47.816Z,52.55
2018-07-31T20:27:54.318Z,52.74
2018-07-31T20:31:01.442Z,53.00
2018-07-31T20:34:08.276Z,53.85
2018-07-31T20:37:15.056Z,54.03
2018-07-31T20:40:21.729Z,54.66
2018-07-31T20:43:28.848Z,55.15
2018-07-31T20:46:35.522Z,56.01
2018-07-31T20:49:42.340Z,56.61
2018-07-31T20:52:49.111Z,56.88
2018-07-31T20:55:55.946Z,57.08
2018-07-31T20:59:02.981Z,57.77
2018-07-31T21:02:09.760Z,57.73
2018-07-31T21:05:16.503Z,58.00
2018-07-31T21:08:23.340Z,58.31
2018-07-31T21:11:29.857Z,58.52
2018-07-31T21:14:37.016Z,58.85
2018-07-31T21:17:43.705Z,58.90
2018-07-31T21:20:50.458Z,58.99
2018-07-31T21:23:56.979Z,59.22
2018-07-31T21:27:03.664Z,59.39
2018-07-31T21:30:10.217Z,59.81
2018-07-31T21:33:16.673Z,59.72
2018-07-31T21:36:23.476Z,59.87
2018-07-31T21:39:30.210Z,59.83
2018-07-31T21:42:36.766Z,59.93
2018-07-31T21:45:43.184Z,59.94
2018-07-31T21:48:50.343Z,60.18
2018-07-31T21:51:56.872Z,60.43
2018-07-31T21:55:03.657Z,60.84
2018-07-31T21:58:10.006Z,60.81
2018-07-31T22:01:16.852Z,60.58
2018-07-31T22:04:23.384Z,61.20
2018-07-31T22:07:30.027Z,61.26
2018-07-31T22:10:36.779Z,61.94
2018-07-31T22:13:43.294Z,61.75
2018-07-31T22:16:49.613Z,62.07
2018-07-31T22:19:56.088Z,62.22
2018-07-31T22:23:03.141Z,63.07
2018-07-31T22:26:09.861Z,63.24
2018-07-31T22:29:16.343Z,63.11
2018-07-31T22:32:23.189Z,63.19
2018-07-31T22:35:29.912Z,63.58
2018-07-31T22:38:36.399Z,63.79
2018-07-31T22:41:43.444Z,63.74
2018-07-31T22:44:49.991Z,64.06
2018-07-31T22:47:56.419Z,64.23
2018-07-31T22:51:02.817Z,64.74
2018-07-31T22:54:09.634Z,65.34
2018-07-31T22:57:16.376Z,65.42
2018-07-31T23:00:23.119Z,65.45
2018-07-31T23:03:29.638Z,65.34
2018-07-31T23:06:36.392Z,65.42
2018-07-31T23:09:47.256Z,65.93
2018-07-31T23:12:54.079Z,66.16
2018-07-31T23:16:00.821Z,66.36
2018-07-31T23:19:07.540Z,66.38
2018-07-31T23:22:36.096Z,66.84
2018-07-31T23:25:42.842Z,67.22
2018-07-31T23:28:49.349Z,67.26
2018-07-31T23:31:56.034Z,67.61
2018-07-31T23:35:03.113Z,68.20
2018-07-31T23:38:09.850Z,68.50
2018-07-31T23:41:16.423Z,68.33
2018-07-31T23:44:23.503Z,68.39
2018-07-31T23:47:30.679Z,68.74
2018-07-31T23:50:37.754Z,68.63
2018-07-31T23:53:44.588Z,68.81
2018-07-31T23:56:50.726Z,70.06
2018-07-31T23:59:57.128Z,70.07
